Time;durP1;ratioP1;P1;durP2;ratioP2;P2;SDS_P1;SDS_P2;PMS_P1;PMS_P2;Temp;Humidity;BMP_temperature;BMP_pressure;BME280_temperature;BME280_humidity;BME280_pressure;Samples;Min_cycle;Max_cycle;Signal;HPM_P1;HPM_P2
2024/02/15 00:00:37;;;;;;;4.25;3.45;;;13.50;99.90;;;;;;5035764;28;20021;-67
2024/02/15 00:03:03;;;;;;;8.07;4.50;;;13.40;99.90;;;;;;5045262;28;20082;-67
2024/02/15 00:05:28;;;;;;;6.50;4.30;;;13.50;99.90;;;;;;5048237;28;20021;-68
2024/02/15 00:07:54;;;;;;;4.70;3.90;;;13.40;99.90;;;;;;5049158;28;20025;-68
2024/02/15 00:10:24;;;;;;;4.20;3.25;;;13.40;99.90;;;;;;5051043;28;20033;-67
2024/02/15 00:12:51;;;;;;;4.03;2.50;;;13.50;99.90;;;;;;5050780;28;20017;-68
2024/02/15 00:15:16;;;;;;;4.97;3.65;;;13.50;99.90;;;;;;5055018;28;20111;-68
2024/02/15 00:17:42;;;;;;;6.30;3.72;;;13.40;99.90;;;;;;5043984;28;20116;-68
2024/02/15 00:20:09;;;;;;;6.72;4.50;;;13.40;99.90;;;;;;5049917;28;20457;-68
2024/02/15 00:22:39;;;;;;;4.35;3.40;;;13.40;99.90;;;;;;5050222;28;20348;-68
2024/02/15 00:25:06;;;;;;;4.50;3.40;;;13.40;99.90;;;;;;5051211;28;20025;-68
2024/02/15 00:27:34;;;;;;;4.10;3.13;;;13.40;99.90;;;;;;5050327;28;20037;-68
2024/02/15 00:30:00;;;;;;;5.35;3.72;;;13.50;99.90;;;;;;5050879;28;20467;-67
2024/02/15 00:32:25;;;;;;;8.40;5.72;;;13.50;99.90;;;;;;5050672;28;20025;-67
2024/02/15 00:34:51;;;;;;;9.38;6.57;;;13.50;99.90;;;;;;5050922;28;20029;-67
2024/02/15 00:37:17;;;;;;;6.18;4.22;;;13.50;99.90;;;;;;5043432;28;20024;-66
2024/02/15 00:39:43;;;;;;;6.22;4.25;;;13.40;99.90;;;;;;5049982;28;20263;-66
2024/02/15 00:42:08;;;;;;;5.63;3.83;;;13.50;99.90;;;;;;5050176;28;20024;-66
2024/02/15 00:44:34;;;;;;;7.15;5.22;;;13.50;99.90;;;;;;5048916;28;20036;-67
2024/02/15 00:47:00;;;;;;;7.65;5.03;;;13.50;99.90;;;;;;5050020;28;20043;-66
2024/02/15 00:49:27;;;;;;;9.77;7.25;;;13.50;99.90;;;;;;5048070;28;20025;-67
2024/02/15 00:51:53;;;;;;;7.53;5.53;;;13.50;99.90;;;;;;5047491;28;20503;-67
2024/02/15 00:54:19;;;;;;;7.00;4.97;;;13.50;99.90;;;;;;5041347;28;20025;-66
2024/02/15 00:56:44;;;;;;;7.95;5.95;;;13.50;99.90;;;;;;5042555;28;20475;-67
2024/02/15 00:59:10;;;;;;;10.23;7.10;;;13.50;99.90;;;;;;5055235;28;20025;-67
2024/02/15 01:01:37;;;;;;;9.32;6.85;;;13.50;99.90;;;;;;5049118;28;20103;-67
2024/02/15 01:04:04;;;;;;;8.52;5.95;;;13.50;99.90;;;;;;5048323;28;20047;-67
2024/02/15 01:06:29;;;;;;;8.77;6.35;;;13.50;99.90;;;;;;5054986;28;20411;-67
2024/02/15 01:08:55;;;;;;;7.07;5.30;;;13.50;99.90;;;;;;5057428;28;20021;-66
2024/02/15 01:11:21;;;;;;;6.68;5.13;;;13.50;99.90;;;;;;5058835;28;20506;-67
2024/02/15 01:13:46;;;;;;;8.48;5.13;;;13.50;99.90;;;;;;5053108;28;20439;-66
2024/02/15 01:16:12;;;;;;;4.88;3.78;;;13.50;99.90;;;;;;5052090;28;20013;-67
2024/02/15 01:18:37;;;;;;;8.35;4.90;;;13.50;99.90;;;;;;5050410;28;20491;-66
2024/02/15 01:21:03;;;;;;;10.88;7.88;;;13.50;99.90;;;;;;5057035;28;20036;-67
2024/02/15 01:23:29;;;;;;;12.52;9.13;;;13.50;99.90;;;;;;5055246;28;20025;-66
2024/02/15 01:25:55;;;;;;;9.65;6.40;;;13.50;99.90;;;;;;5049236;28;20439;-66
2024/02/15 01:28:21;;;;;;;13.05;8.43;;;13.40;99.90;;;;;;5056323;28;20111;-66
2024/02/15 01:30:47;;;;;;;13.90;9.38;;;13.40;99.90;;;;;;5049168;28;20021;-67
2024/02/15 01:33:13;;;;;;;10.68;7.55;;;13.40;99.90;;;;;;5058451;28;20025;-67
2024/02/15 01:35:38;;;;;;;11.90;8.20;;;13.40;99.90;;;;;;5055930;28;20032;-66
2024/02/15 01:38:07;;;;;;;10.93;7.75;;;13.40;99.90;;;;;;5049445;28;20029;-67
2024/02/15 01:40:33;;;;;;;11.05;7.00;;;13.40;99.90;;;;;;5048981;28;20039;-67
2024/02/15 01:43:00;;;;;;;9.60;6.90;;;13.40;99.90;;;;;;5049838;28;20107;-67
2024/02/15 01:45:26;;;;;;;11.93;8.10;;;13.50;99.90;;;;;;5049355;28;20422;-66
2024/02/15 01:47:53;;;;;;;15.50;10.20;;;13.40;99.90;;;;;;5048682;28;20029;-66
2024/02/15 01:50:21;;;;;;;12.45;8.95;;;13.40;99.90;;;;;;5047493;28;20031;-66
2024/02/15 01:52:47;;;;;;;11.70;8.85;;;13.40;99.90;;;;;;5048147;28;20518;-66
2024/02/15 01:55:15;;;;;;;12.13;6.50;;;13.30;99.90;;;;;;5048840;28;20036;-66
2024/02/15 01:57:45;;;;;;;9.80;6.82;;;13.30;99.90;;;;;;5049235;28;20043;-66
2024/02/15 02:00:12;;;;;;;10.48;6.63;;;13.30;99.90;;;;;;5048798;28;20031;-67
2024/02/15 02:02:41;;;;;;;6.97;5.03;;;13.30;99.90;;;;;;5049834;28;20112;-66
2024/02/15 02:05:07;;;;;;;8.65;5.35;;;13.40;99.90;;;;;;5049346;28;20024;-66
2024/02/15 02:07:33;;;;;;;10.52;6.93;;;13.40;99.90;;;;;;5045068;28;20483;-65
2024/02/15 02:09:59;;;;;;;10.52;6.78;;;13.40;99.90;;;;;;5048714;28;20033;-66
2024/02/15 02:12:27;;;;;;;10.15;6.53;;;13.40;99.90;;;;;;5043110;28;20142;-66
2024/02/15 02:14:53;;;;;;;10.50;5.70;;;13.40;99.90;;;;;;5040817;28;20029;-67
2024/02/15 02:17:19;;;;;;;12.32;7.07;;;13.40;99.90;;;;;;5048213;28;20040;-67
2024/02/15 02:19:45;;;;;;;9.75;6.57;;;13.40;99.90;;;;;;5049629;28;20032;-68
2024/02/15 02:22:11;;;;;;;11.60;6.32;;;13.40;99.90;;;;;;5049145;28;20036;-66
2024/02/15 02:24:58;;;;;;;9.25;5.53;;;13.40;99.90;;;;;;5048737;28;20135;-66
2024/02/15 02:27:28;;;;;;;9.00;5.32;;;13.40;99.90;;;;;;5046341;28;20593;-68
2024/02/15 02:29:53;;;;;;;8.88;5.80;;;13.40;99.90;;;;;;5042560;28;20041;-67
2024/02/15 02:32:19;;;;;;;10.98;6.68;;;13.40;99.90;;;;;;5041807;28;20106;-66
2024/02/15 02:34:44;;;;;;;13.15;7.05;;;13.40;99.90;;;;;;5055555;28;20032;-66
2024/02/15 02:37:11;;;;;;;11.35;6.10;;;13.40;99.90;;;;;;5046839;28;20470;-66
2024/02/15 02:39:37;;;;;;;8.10;5.25;;;13.40;99.90;;;;;;5054147;28;20503;-66
2024/02/15 02:42:03;;;;;;;9.73;5.63;;;13.40;99.90;;;;;;5051165;28;20033;-66
2024/02/15 02:44:29;;;;;;;6.68;4.60;;;13.40;99.90;;;;;;5046535;28;20424;-66
2024/02/15 02:46:54;;;;;;;10.95;5.50;;;13.40;99.90;;;;;;5049799;28;20167;-66
2024/02/15 02:49:20;;;;;;;9.93;4.90;;;13.40;99.90;;;;;;5047764;28;20033;-66
2024/02/15 02:51:46;;;;;;;10.95;6.82;;;13.40;99.90;;;;;;5052529;28;20034;-66
2024/02/15 02:54:12;;;;;;;9.93;4.78;;;13.40;99.90;;;;;;5052866;28;20033;-66
2024/02/15 02:56:37;;;;;;;7.10;4.68;;;13.40;99.90;;;;;;5054010;28;20133;-66
2024/02/15 02:59:03;;;;;;;13.80;6.85;;;13.40;99.90;;;;;;5051144;28;20495;-66
2024/02/15 03:01:29;;;;;;;7.75;5.05;;;13.40;99.90;;;;;;5040095;28;20047;-66
2024/02/15 03:03:55;;;;;;;10.38;5.38;;;13.40;99.90;;;;;;5047839;28;20033;-66
2024/02/15 03:06:21;;;;;;;11.50;6.80;;;13.40;99.90;;;;;;5047825;28;20032;-66
2024/02/15 03:08:47;;;;;;;8.75;4.68;;;13.40;99.90;;;;;;5041780;28;20036;-66
2024/02/15 03:11:14;;;;;;;7.40;4.65;;;13.40;99.90;;;;;;5047844;28;20025;-66
2024/02/15 03:13:40;;;;;;;9.80;5.45;;;13.40;99.90;;;;;;5048411;28;20071;-66
2024/02/15 03:16:05;;;;;;;10.82;5.45;;;13.40;99.90;;;;;;5050648;28;20029;-66
2024/02/15 03:18:33;;;;;;;8.65;5.13;;;13.40;99.90;;;;;;5048732;28;20102;-66
2024/02/15 03:20:58;;;;;;;10.30;6.55;;;13.40;99.90;;;;;;5049947;28;20032;-67
2024/02/15 03:23:24;;;;;;;9.38;6.43;;;13.30;99.90;;;;;;5048910;28;20094;-66
2024/02/15 03:25:49;;;;;;;9.05;5.60;;;13.30;99.90;;;;;;5041783;28;20029;-66
2024/02/15 03:28:15;;;;;;;9.13;5.88;;;13.30;99.90;;;;;;5046247;28;20029;-66
2024/02/15 03:30:42;;;;;;;11.55;5.93;;;13.30;99.90;;;;;;5048393;28;20024;-67
2024/02/15 03:33:08;;;;;;;9.05;5.30;;;13.30;99.90;;;;;;5047226;28;20032;-66
2024/02/15 03:35:34;;;;;;;11.48;6.00;;;13.30;99.90;;;;;;5047772;28;20424;-66
2024/02/15 03:38:00;;;;;;;6.25;4.47;;;13.30;99.90;;;;;;5047650;28;20036;-66
2024/02/15 03:40:26;;;;;;;8.18;4.07;;;13.20;99.90;;;;;;5047616;28;20028;-66
2024/02/15 03:42:53;;;;;;;7.03;4.25;;;13.30;99.90;;;;;;5046214;28;20044;-67
2024/02/15 03:45:19;;;;;;;8.45;4.30;;;13.30;99.90;;;;;;5048921;28;20110;-66
2024/02/15 03:47:46;;;;;;;8.02;4.35;;;13.30;99.90;;;;;;5050097;28;20602;-66
2024/02/15 03:50:14;;;;;;;8.18;4.20;;;13.20;99.90;;;;;;5050844;28;20112;-67
2024/02/15 03:52:40;;;;;;;6.40;4.00;;;13.30;99.90;;;;;;5047719;28;20021;-66
2024/02/15 03:55:07;;;;;;;9.52;4.40;;;13.30;99.90;;;;;;5051804;28;20017;-66
2024/02/15 03:57:33;;;;;;;7.93;3.45;;;13.30;99.90;;;;;;5050259;28;20295;-67
2024/02/15 03:59:59;;;;;;;8.05;3.60;;;13.20;99.90;;;;;;5051314;28;20059;-66
2024/02/15 04:02:30;;;;;;;8.13;4.85;;;13.30;99.90;;;;;;5052452;28;20490;-66
2024/02/15 04:04:56;;;;;;;6.32;3.85;;;13.30;99.90;;;;;;5048613;28;20036;-66
2024/02/15 04:07:22;;;;;;;9.63;4.20;;;13.30;99.90;;;;;;5049063;28;20030;-66
2024/02/15 04:09:48;;;;;;;9.82;4.82;;;13.30;99.90;;;;;;5052015;28;20028;-66
2024/02/15 04:12:14;;;;;;;11.60;4.90;;;13.30;99.90;;;;;;5050086;28;20426;-66
2024/02/15 04:14:49;;;;;;;6.53;3.78;;;13.30;99.90;;;;;;5050389;28;20079;-67
2024/02/15 04:17:16;;;;;;;5.53;3.20;;;13.30;99.90;;;;;;5047239;28;20033;-67
2024/02/15 04:19:45;;;;;;;8.18;4.55;;;13.30;99.90;;;;;;5048822;28;20029;-67
2024/02/15 04:22:10;;;;;;;8.27;4.05;;;13.20;99.90;;;;;;5048230;28;20024;-67
2024/02/15 04:24:39;;;;;;;9.13;4.22;;;13.20;99.90;;;;;;5050777;28;20452;-66
2024/02/15 04:27:11;;;;;;;6.63;3.53;;;13.20;99.90;;;;;;5050812;28;20025;-68
2024/02/15 04:29:40;;;;;;;7.95;4.05;;;13.20;99.90;;;;;;5050561;28;20032;-66
2024/02/15 04:32:10;;;;;;;10.68;4.25;;;13.20;99.90;;;;;;5051987;28;20533;-66
2024/02/15 04:34:36;;;;;;;8.93;3.47;;;13.20;99.90;;;;;;5050477;28;20483;-66
2024/02/15 04:37:06;;;;;;;7.53;4.22;;;13.20;99.90;;;;;;5045195;28;20033;-67
2024/02/15 04:39:32;;;;;;;8.98;4.00;;;13.20;99.90;;;;;;5050183;28;20460;-66
2024/02/15 04:41:58;;;;;;;7.03;3.80;;;13.20;99.90;;;;;;5051031;28;20017;-66
2024/02/15 04:44:27;;;;;;;10.25;4.10;;;13.20;99.90;;;;;;5050835;28;20052;-66
2024/02/15 04:46:56;;;;;;;7.38;3.40;;;13.10;99.90;;;;;;5051706;28;20032;-66
2024/02/15 04:49:22;;;;;;;6.10;3.50;;;13.20;99.90;;;;;;5049843;28;20030;-66
2024/02/15 04:51:48;;;;;;;6.53;3.55;;;13.20;99.90;;;;;;5047985;28;20018;-67
2024/02/15 04:54:14;;;;;;;8.80;3.75;;;13.20;99.90;;;;;;5049484;28;20101;-66
2024/02/15 04:56:40;;;;;;;7.97;3.97;;;13.20;99.90;;;;;;5050485;28;20345;-66
2024/02/15 04:59:11;;;;;;;7.85;3.53;;;13.20;99.90;;;;;;5046534;28;20462;-66
2024/02/15 05:01:37;;;;;;;6.18;2.97;;;13.20;99.90;;;;;;5041144;28;20082;-66
2024/02/15 05:04:07;;;;;;;9.07;3.72;;;13.20;99.90;;;;;;5047483;28;20045;-66
2024/02/15 05:06:33;;;;;;;9.40;3.10;;;13.20;99.90;;;;;;5050562;28;20025;-66
2024/02/15 05:08:59;;;;;;;5.03;2.95;;;13.20;99.90;;;;;;5050453;28;20028;-67
2024/02/15 05:11:25;;;;;;;5.07;2.65;;;13.20;99.90;;;;;;5050269;28;20029;-66
2024/02/15 05:13:51;;;;;;;5.70;3.13;;;13.20;99.90;;;;;;5051031;28;20043;-66
2024/02/15 05:16:17;;;;;;;6.13;3.08;;;13.20;99.90;;;;;;5051353;28;20028;-67
2024/02/15 05:18:43;;;;;;;6.10;3.03;;;13.20;99.90;;;;;;5048357;28;20032;-66
2024/02/15 05:21:09;;;;;;;6.55;3.05;;;13.20;99.90;;;;;;5038749;28;20036;-66
2024/02/15 05:23:41;;;;;;;4.90;2.33;;;13.20;99.90;;;;;;5051165;28;20056;-65
2024/02/15 05:26:09;;;;;;;7.50;3.13;;;13.20;99.90;;;;;;5050489;28;20108;-66
2024/02/15 05:28:34;;;;;;;7.28;2.65;;;13.20;99.90;;;;;;5049093;28;20510;-66
2024/02/15 05:31:20;;;;;;;4.55;2.20;;;13.20;99.90;;;;;;5049232;28;20029;-66
2024/02/15 05:33:53;;;;;;;5.75;2.70;;;13.20;99.90;;;;;;5050031;28;20033;-67
2024/02/15 05:36:21;;;;;;;6.97;2.60;;;13.20;99.90;;;;;;5049830;28;20013;-67
2024/02/15 05:38:51;;;;;;;6.05;2.83;;;13.20;99.90;;;;;;5046785;28;20029;-66
2024/02/15 05:41:19;;;;;;;11.73;4.00;;;13.20;99.90;;;;;;5047457;28;20064;-66
2024/02/15 05:43:44;;;;;;;5.53;2.72;;;13.20;99.90;;;;;;5049042;28;20035;-66
2024/02/15 05:46:10;;;;;;;5.25;2.42;;;13.20;99.90;;;;;;5049653;28;20899;-67
2024/02/15 05:48:37;;;;;;;7.55;3.20;;;13.10;99.90;;;;;;5044991;28;20037;-67
2024/02/15 05:51:09;;;;;;;6.55;2.33;;;13.20;99.90;;;;;;5046045;28;20021;-67
2024/02/15 05:53:35;;;;;;;5.70;2.60;;;13.20;99.90;;;;;;5048988;28;20025;-67
2024/02/15 05:56:06;;;;;;;4.20;2.33;;;13.20;99.90;;;;;;5045961;28;20116;-67
2024/02/15 05:58:32;;;;;;;3.90;2.00;;;13.20;99.90;;;;;;5044840;28;20098;-67
2024/02/15 06:01:01;;;;;;;3.72;2.17;;;13.20;99.90;;;;;;5050304;28;20345;-67
2024/02/15 06:03:31;;;;;;;7.43;3.28;;;13.20;99.90;;;;;;5049150;28;20051;-67
2024/02/15 06:05:58;;;;;;;7.65;2.83;;;13.20;99.90;;;;;;5048687;28;20029;-67
2024/02/15 06:08:27;;;;;;;4.45;2.50;;;13.20;99.90;;;;;;5048441;28;20025;-67
2024/02/15 06:10:53;;;;;;;3.35;2.40;;;13.20;99.90;;;;;;5049719;28;20379;-67
2024/02/15 06:13:19;;;;;;;6.78;2.17;;;13.20;99.90;;;;;;5044927;28;20024;-68
2024/02/15 06:15:46;;;;;;;3.30;1.92;;;13.10;99.90;;;;;;5044295;28;20470;-67
2024/02/15 06:18:16;;;;;;;5.45;2.13;;;13.20;99.90;;;;;;5048663;28;20037;-67
2024/02/15 06:20:42;;;;;;;4.75;2.20;;;13.20;99.90;;;;;;5050248;28;20048;-67
2024/02/15 06:23:08;;;;;;;6.45;2.65;;;13.20;99.90;;;;;;5050577;28;20028;-67
2024/02/15 06:25:35;;;;;;;7.30;3.00;;;13.20;99.90;;;;;;5046712;28;20372;-67
2024/02/15 06:28:06;;;;;;;4.18;2.03;;;13.20;99.90;;;;;;5048434;28;20079;-66
2024/02/15 06:41:33;;;;;;;6.43;2.30;;;13.30;99.90;;;;;;5047592;28;20048;-66
2024/02/15 06:43:58;;;;;;;2.88;2.10;;;13.30;99.90;;;;;;5048828;28;20025;-66
2024/02/15 06:46:24;;;;;;;5.78;2.92;;;13.30;99.90;;;;;;5047306;28;20029;-66
2024/02/15 06:48:49;;;;;;;7.80;3.30;;;13.30;99.90;;;;;;5047938;28;20091;-65
2024/02/15 06:51:15;;;;;;;5.88;2.92;;;13.20;99.90;;;;;;5048382;28;20040;-66
2024/02/15 06:53:41;;;;;;;3.38;2.30;;;13.20;99.90;;;;;;5043600;28;20033;-66
2024/02/15 06:56:10;;;;;;;5.38;2.65;;;13.20;99.90;;;;;;5044188;28;20047;-66
2024/02/15 06:58:36;;;;;;;4.30;1.92;;;13.20;99.90;;;;;;5039869;28;20434;-66
2024/02/15 07:01:02;;;;;;;4.65;2.30;;;13.20;99.90;;;;;;5043934;28;20033;-67
2024/02/15 07:03:29;;;;;;;3.78;1.88;;;13.20;99.90;;;;;;5048219;28;20036;-66
2024/02/15 07:05:56;;;;;;;3.83;2.10;;;13.20;99.90;;;;;;5044583;28;23853;-66
2024/02/15 07:08:23;;;;;;;4.22;1.60;;;13.20;99.90;;;;;;5041054;28;20471;-65
2024/02/15 07:10:48;;;;;;;3.97;2.72;;;13.20;99.90;;;;;;5049601;28;20025;-65
2024/02/15 07:13:14;;;;;;;2.70;2.13;;;13.20;99.90;;;;;;5047067;28;20043;-66
2024/02/15 07:15:40;;;;;;;3.40;2.40;;;13.20;99.90;;;;;;5044492;28;20017;-65
2024/02/15 07:18:06;;;;;;;4.35;1.60;;;13.20;99.90;;;;;;5044703;28;20033;-65
2024/02/15 07:20:33;;;;;;;3.70;1.75;;;13.20;99.90;;;;;;5049918;28;20013;-65
2024/02/15 07:22:59;;;;;;;2.45;1.33;;;13.30;99.90;;;;;;5048373;28;20040;-66
2024/02/15 07:25:24;;;;;;;1.20;1.10;;;13.30;99.90;;;;;;5047692;28;20021;-66
2024/02/15 07:27:50;;;;;;;3.88;2.35;;;13.40;99.90;;;;;;5046290;28;20021;-66
2024/02/15 07:30:16;;;;;;;5.03;2.50;;;13.30;99.90;;;;;;5048411;28;20388;-66
2024/02/15 07:32:41;;;;;;;3.25;1.83;;;13.30;99.90;;;;;;5048635;28;20021;-66
2024/02/15 07:35:07;;;;;;;4.30;1.77;;;13.30;99.90;;;;;;5038161;28;20422;-66
2024/02/15 07:37:33;;;;;;;5.60;2.42;;;13.30;99.90;;;;;;5047007;28;20025;-66
2024/02/15 07:39:59;;;;;;;2.97;2.00;;;13.30;99.90;;;;;;5047860;28;20511;-66
2024/02/15 07:42:25;;;;;;;1.92;1.50;;;13.30;99.90;;;;;;5047165;28;20032;-66
2024/02/15 07:44:52;;;;;;;1.50;1.00;;;13.40;99.90;;;;;;5049216;28;20033;-66
2024/02/15 07:47:20;;;;;;;3.85;2.33;;;13.40;99.90;;;;;;5049506;28;20124;-66
2024/02/15 07:49:46;;;;;;;3.25;2.42;;;13.40;99.90;;;;;;5050171;28;20021;-66
2024/02/15 07:52:13;;;;;;;6.97;3.00;;;13.30;99.90;;;;;;5043941;28;20654;-66
2024/02/15 07:54:39;;;;;;;4.93;2.88;;;13.30;99.90;;;;;;5045262;28;20013;-66
2024/02/15 07:57:05;;;;;;;4.80;2.80;;;13.30;99.90;;;;;;5048977;28;20516;-66
2024/02/15 07:59:30;;;;;;;2.90;2.15;;;13.30;99.90;;;;;;5044789;28;20107;-66
2024/02/15 08:01:56;;;;;;;4.18;2.45;;;13.20;99.90;;;;;;5046094;28;20064;-66
2024/02/15 08:04:23;;;;;;;2.60;2.00;;;13.30;99.90;;;;;;5050262;28;20056;-66
2024/02/15 08:06:52;;;;;;;2.97;1.60;;;13.30;99.90;;;;;;5048162;28;20395;-67
2024/02/15 08:09:20;;;;;;;1.73;1.33;;;13.30;99.90;;;;;;5050144;28;20375;-66
2024/02/15 08:11:45;;;;;;;1.60;1.17;;;13.40;99.90;;;;;;5051655;28;20483;-66
2024/02/15 08:14:11;;;;;;;1.30;1.20;;;13.40;99.90;;;;;;5051896;28;20112;-67
2024/02/15 08:16:41;;;;;;;1.52;1.30;;;13.40;99.90;;;;;;5050789;28;20021;-66
2024/02/15 08:19:07;;;;;;;1.65;1.10;;;13.50;99.90;;;;;;5046800;28;20094;-66
2024/02/15 08:21:35;;;;;;;1.10;1.00;;;13.50;99.90;;;;;;5053680;28;20456;-67
2024/02/15 08:24:05;;;;;;;2.13;1.40;;;13.50;99.90;;;;;;5050578;28;20025;-67
2024/02/15 08:26:37;;;;;;;1.70;1.30;;;13.50;99.90;;;;;;5048348;28;20021;-67
2024/02/15 08:29:03;;;;;;;2.10;1.63;;;13.50;99.90;;;;;;5049786;28;20483;-67
2024/02/15 08:31:31;;;;;;;1.40;1.30;;;13.50;99.90;;;;;;5046380;28;20024;-67
2024/02/15 08:33:56;;;;;;;2.85;1.80;;;13.50;99.90;;;;;;5052128;28;20372;-66
2024/02/15 08:36:22;;;;;;;1.98;1.58;;;13.50;99.90;;;;;;5053794;28;20025;-66
2024/02/15 08:38:49;;;;;;;2.67;1.80;;;13.50;99.90;;;;;;5052235;28;20032;-67
2024/02/15 08:41:17;;;;;;;2.15;1.63;;;13.50;99.90;;;;;;5054348;28;20479;-66
2024/02/15 08:43:43;;;;;;;1.73;1.27;;;13.50;99.90;;;;;;5053607;28;20036;-66
2024/02/15 08:46:10;;;;;;;1.23;1.10;;;13.50;99.90;;;;;;5054690;28;20033;-65
2024/02/15 08:48:35;;;;;;;1.00;0.90;;;13.50;99.90;;;;;;5045862;28;20502;-65
2024/02/15 08:51:02;;;;;;;1.35;1.25;;;13.50;99.90;;;;;;5050269;28;20029;-65
2024/02/15 08:53:27;;;;;;;1.40;1.17;;;13.50;99.90;;;;;;5053684;28;20067;-65
2024/02/15 08:55:53;;;;;;;1.58;1.30;;;13.50;99.90;;;;;;5051737;28;20041;-66
2024/02/15 08:58:21;;;;;;;1.40;1.23;;;13.50;99.90;;;;;;5051386;28;20130;-65
2024/02/15 09:00:46;;;;;;;2.72;1.42;;;13.50;99.90;;;;;;5047523;28;20437;-66
2024/02/15 09:03:12;;;;;;;1.30;1.17;;;13.50;99.90;;;;;;5051966;28;20021;-65
2024/02/15 09:05:40;;;;;;;1.70;1.40;;;13.50;99.90;;;;;;5051774;28;20017;-65
2024/02/15 09:08:06;;;;;;;1.20;1.10;;;13.50;99.90;;;;;;5050712;28;20025;-65
2024/02/15 09:10:32;;;;;;;2.50;1.50;;;13.50;99.90;;;;;;5048905;28;20070;-67
2024/02/15 09:12:57;;;;;;;3.28;2.25;;;13.50;99.90;;;;;;5050996;28;20096;-66
2024/02/15 09:15:23;;;;;;;2.47;1.98;;;13.50;99.90;;;;;;5046882;28;20229;-67
2024/02/15 09:17:48;;;;;;;2.80;2.10;;;13.40;99.90;;;;;;5045469;28;20171;-66
2024/02/15 09:20:18;;;;;;;2.17;1.67;;;13.40;99.90;;;;;;5053811;28;20567;-66
2024/02/15 09:22:54;;;;;;;3.05;2.28;;;13.40;99.90;;;;;;5049270;28;20029;-66
2024/02/15 09:25:23;;;;;;;2.50;1.50;;;13.40;99.90;;;;;;5055640;28;20033;-67
2024/02/15 09:27:49;;;;;;;1.40;1.30;;;13.40;99.90;;;;;;5053357;28;20116;-67
2024/02/15 09:30:15;;;;;;;1.48;1.27;;;13.40;99.90;;;;;;5057531;28;20029;-66
2024/02/15 09:32:42;;;;;;;1.75;1.35;;;13.40;99.90;;;;;;5056633;28;20017;-67
2024/02/15 09:35:11;;;;;;;1.48;1.33;;;13.40;99.90;;;;;;5056933;28;20017;-67
2024/02/15 09:37:43;;;;;;;1.40;1.30;;;13.40;99.90;;;;;;5047211;28;20031;-66
2024/02/15 09:40:10;;;;;;;1.98;1.55;;;13.50;99.90;;;;;;5049316;28;20653;-66
2024/02/15 09:42:36;;;;;;;2.70;1.45;;;13.50;99.90;;;;;;5050536;28;20075;-66
2024/02/15 09:45:02;;;;;;;2.63;2.00;;;13.50;99.90;;;;;;5049988;28;20021;-66
2024/02/15 09:47:40;;;;;;;2.17;1.60;;;13.50;99.90;;;;;;5047856;28;20047;-66
2024/02/15 09:50:13;;;;;;;3.35;2.08;;;13.50;99.90;;;;;;5048019;28;20029;-66
2024/02/15 09:53:02;;;;;;;2.67;1.80;;;13.40;99.90;;;;;;5049683;28;20086;-67
2024/02/15 09:55:28;;;;;;;1.70;1.50;;;13.50;99.90;;;;;;5042116;28;20025;-66
2024/02/15 09:57:55;;;;;;;3.67;1.65;;;13.50;99.90;;;;;;5048621;28;20335;-66
2024/02/15 10:00:20;;;;;;;2.63;1.65;;;13.40;99.90;;;;;;5045134;28;20100;-67
2024/02/15 10:02:53;;;;;;;4.30;2.28;;;13.50;99.90;;;;;;5048249;28;20115;-68
2024/02/15 10:05:19;;;;;;;2.03;1.60;;;13.40;99.90;;;;;;5047078;28;20025;-67
2024/02/15 10:07:45;;;;;;;3.58;1.83;;;13.40;99.90;;;;;;5045381;28;20032;-67
2024/02/15 10:10:25;;;;;;;3.63;1.77;;;13.40;99.90;;;;;;5049084;28;20056;-67
2024/02/15 10:12:54;;;;;;;3.25;1.90;;;13.40;99.90;;;;;;5048453;28;20403;-66
2024/02/15 10:15:36;;;;;;;5.13;1.90;;;13.40;99.90;;;;;;5050119;28;20021;-67
2024/02/15 10:18:08;;;;;;;4.28;2.20;;;13.40;99.90;;;;;;5050347;28;20079;-66
2024/02/15 10:20:35;;;;;;;4.75;2.42;;;13.40;99.90;;;;;;5040205;28;20117;-66
2024/02/15 10:23:09;;;;;;;4.63;2.10;;;13.40;99.90;;;;;;5047250;28;20468;-67
2024/02/15 10:25:35;;;;;;;4.50;2.08;;;13.40;99.90;;;;;;5050171;28;20491;-66
2024/02/15 10:28:08;;;;;;;2.20;1.48;;;13.40;99.90;;;;;;5047557;28;20017;-67
2024/02/15 10:30:38;;;;;;;4.88;2.55;;;13.40;99.90;;;;;;5050436;28;20470;-67
2024/02/15 10:33:05;;;;;;;4.72;2.00;;;13.40;99.90;;;;;;5044332;28;20471;-67
2024/02/15 10:35:34;;;;;;;3.13;1.60;;;13.40;99.90;;;;;;5040001;28;20022;-66
2024/02/15 10:38:10;;;;;;;4.18;1.90;;;13.50;99.90;;;;;;5047762;28;20047;-66
2024/02/15 10:40:37;;;;;;;3.28;1.83;;;13.50;99.90;;;;;;5046798;28;20048;-67
2024/02/15 10:43:05;;;;;;;5.32;2.10;;;13.50;99.90;;;;;;5046248;28;20028;-67
2024/02/15 10:45:32;;;;;;;3.22;1.90;;;13.50;99.90;;;;;;5049122;28;20021;-66
2024/02/15 10:47:58;;;;;;;3.73;1.90;;;13.50;99.90;;;;;;5044280;28;20021;-67
2024/02/15 10:50:24;;;;;;;3.75;1.33;;;13.50;99.90;;;;;;5042189;28;20250;-67
2024/02/15 10:52:58;;;;;;;4.38;2.00;;;13.60;99.90;;;;;;5043239;28;20033;-67
2024/02/15 10:55:39;;;;;;;4.90;1.48;;;13.60;99.90;;;;;;5041787;28;20037;-67
2024/02/15 10:58:06;;;;;;;2.25;1.50;;;13.60;99.90;;;;;;5044259;28;20024;-67
2024/02/15 11:00:37;;;;;;;3.13;1.38;;;13.60;99.90;;;;;;5045873;28;20071;-67
2024/02/15 11:03:05;;;;;;;3.30;1.77;;;13.70;99.90;;;;;;5044619;28;20603;-67
2024/02/15 11:05:37;;;;;;;4.65;2.45;;;13.60;99.90;;;;;;5047444;28;20630;-67
2024/02/15 11:08:10;;;;;;;3.78;1.92;;;13.60;99.90;;;;;;5047256;28;20078;-67
2024/02/15 11:10:37;;;;;;;5.13;1.90;;;13.60;99.90;;;;;;5047197;28;20043;-67
2024/02/15 11:13:04;;;;;;;4.03;1.90;;;13.60;99.90;;;;;;5047763;28;20029;-67
2024/02/15 11:15:41;;;;;;;4.28;2.00;;;13.60;99.90;;;;;;5046565;28;20024;-67
2024/02/15 11:18:06;;;;;;;5.90;2.17;;;13.60;99.90;;;;;;5040143;28;20032;-68
2024/02/15 11:20:32;;;;;;;3.08;1.50;;;13.70;99.90;;;;;;5042030;28;20033;-67
2024/02/15 11:22:58;;;;;;;3.00;2.28;;;13.70;99.90;;;;;;5039420;28;20025;-67
2024/02/15 11:25:42;;;;;;;7.18;2.63;;;13.70;99.90;;;;;;5046866;28;20518;-67
2024/02/15 11:28:29;;;;;;;2.53;1.50;;;13.70;99.90;;;;;;5046031;28;20035;-67
2024/02/15 11:30:56;;;;;;;4.20;1.40;;;13.70;99.90;;;;;;5044240;28;20505;-67
2024/02/15 11:33:30;;;;;;;3.63;1.90;;;13.80;99.90;;;;;;5045407;28;20367;-68
2024/02/15 11:36:09;;;;;;;2.95;1.60;;;13.80;99.90;;;;;;5046550;28;20025;-67
2024/02/15 11:38:36;;;;;;;4.07;1.90;;;13.90;99.90;;;;;;5044585;28;20025;-67
2024/02/15 11:41:06;;;;;;;2.92;1.67;;;13.90;99.90;;;;;;5043358;28;20033;-66
2024/02/15 11:43:45;;;;;;;4.53;2.40;;;14.00;99.90;;;;;;5041231;28;20037;-67
2024/02/15 11:46:18;;;;;;;4.35;1.80;;;13.90;99.90;;;;;;5046556;28;20029;-67
2024/02/15 11:48:46;;;;;;;5.53;2.60;;;14.00;99.90;;;;;;5047701;28;20240;-67
2024/02/15 11:51:25;;;;;;;2.85;1.75;;;14.00;99.90;;;;;;5046623;28;20017;-67
2024/02/15 11:53:59;;;;;;;2.70;1.83;;;14.00;99.90;;;;;;5043390;28;20021;-67
2024/02/15 11:56:25;;;;;;;2.13;1.60;;;14.10;99.90;;;;;;5043233;28;20017;-67
2024/02/15 11:59:06;;;;;;;5.40;1.90;;;14.10;99.90;;;;;;5047281;28;20036;-67
2024/02/15 12:20:59;;;;;;;3.08;2.05;;;14.60;99.90;;;;;;5052359;28;20294;-67
2024/02/15 12:23:25;;;;;;;3.95;2.40;;;14.70;99.90;;;;;;5051501;28;20079;-67
2024/02/15 12:25:52;;;;;;;3.85;2.08;;;14.70;99.90;;;;;;5050436;28;20564;-68
2024/02/15 12:28:18;;;;;;;4.68;2.35;;;14.70;99.90;;;;;;5047857;28;20083;-67
2024/02/15 12:30:44;;;;;;;4.93;2.30;;;14.80;99.90;;;;;;5050094;28;20037;-67
2024/02/15 12:33:12;;;;;;;3.83;2.30;;;14.90;99.90;;;;;;5050250;28;20024;-67
2024/02/15 12:35:37;;;;;;;2.95;2.30;;;14.90;99.90;;;;;;5053992;28;20031;-67
2024/02/15 12:38:05;;;;;;;2.10;1.70;;;14.90;99.90;;;;;;5047222;28;20021;-68
2024/02/15 12:40:32;;;;;;;2.63;1.70;;;15.00;99.90;;;;;;5053029;28;20021;-67
2024/02/15 12:42:59;;;;;;;2.67;1.80;;;15.00;99.90;;;;;;5046137;28;20021;-67
2024/02/15 12:45:27;;;;;;;4.72;1.88;;;15.10;99.90;;;;;;5049776;28;20017;-67
2024/02/15 12:47:54;;;;;;;3.13;1.73;;;15.10;99.90;;;;;;5048822;28;20024;-67
2024/02/15 12:50:21;;;;;;;5.00;1.90;;;15.20;99.90;;;;;;5051364;28;20033;-67
2024/02/15 12:52:49;;;;;;;3.53;2.28;;;15.20;99.90;;;;;;5050961;28;20095;-67
2024/02/15 12:55:19;;;;;;;3.90;2.38;;;15.20;99.90;;;;;;5050735;28;20024;-67
2024/02/15 12:57:53;;;;;;;5.30;1.90;;;15.30;99.90;;;;;;5049314;28;20552;-67
2024/02/15 13:00:21;;;;;;;3.33;2.08;;;15.30;99.90;;;;;;5045261;28;20040;-67
2024/02/15 13:02:51;;;;;;;3.92;2.03;;;15.40;99.90;;;;;;5044958;28;20036;-67
2024/02/15 13:05:21;;;;;;;3.65;2.00;;;15.40;99.90;;;;;;5043835;28;20043;-67
2024/02/15 13:07:51;;;;;;;6.22;2.53;;;15.50;99.90;;;;;;5049019;28;20017;-67
2024/02/15 13:10:17;;;;;;;5.05;2.03;;;15.50;99.90;;;;;;5049139;28;20021;-67
2024/02/15 13:12:44;;;;;;;2.45;1.80;;;15.50;99.90;;;;;;5047138;28;20033;-67
2024/02/15 13:15:14;;;;;;;3.35;1.92;;;15.50;99.90;;;;;;5046127;28;20060;-67
2024/02/15 13:17:40;;;;;;;3.20;1.90;;;15.60;99.90;;;;;;5048111;28;20033;-67